Aviation Digital Data Service (ADDS)

Output produced by METARs form (1230 UTC 30 March 2017)
found at http://aviationweather.gov/adds/metars/
 
KLAX 301126Z 3012/3118 VRB03KT P6SM SKC 
     FM301700 25010KT P6SM SCT250 
     FM302100 27020G30KT P6SM SCT250 
     FM310300 33010KT P6SM SKC 
     FM310700 36015G22KT P6SM SKC 
     FM311000 36008KT P6SM SKC